Time;durP1;ratioP1;P1;durP2;ratioP2;P2;SDS_P1;SDS_P2;PMS_P1;PMS_P2;Temp;Humidity;BMP_temperature;BMP_pressure;BME280_temperature;BME280_humidity;BME280_pressure;Samples;Min_cycle;Max_cycle;Signal;HPM_P1;HPM_P2
2023/03/19 00:02:51;;;;;;;7.73;5.07;;;;;;;14.27;42.68;99285.72;10228793;28;20242;-37
2023/03/19 00:07:53;;;;;;;9.60;4.77;;;;;;;12.93;43.05;99292.69;10233707;28;20422;-37
2023/03/19 00:12:55;;;;;;;9.47;5.00;;;;;;;14.20;41.59;99291.97;10237994;28;20235;-36
2023/03/19 00:17:57;;;;;;;7.87;5.10;;;;;;;15.45;39.57;99257.66;10238841;28;20685;-37
2023/03/19 00:22:59;;;;;;;7.67;4.80;;;;;;;15.55;38.87;99296.75;10236426;28;20211;-37
2023/03/19 00:28:01;;;;;;;6.60;4.50;;;;;;;15.06;40.13;99302.13;10239451;28;20519;-36
2023/03/19 00:33:02;;;;;;;6.93;4.20;;;;;;;13.18;42.57;99345.72;10235975;28;20261;-37
2023/03/19 00:38:04;;;;;;;8.10;4.93;;;;;;;13.72;41.74;99367.03;10241693;28;20227;-36
2023/03/19 00:43:06;;;;;;;7.43;5.20;;;;;;;13.76;42.08;99325.19;10236365;28;20323;-36
2023/03/19 00:48:08;;;;;;;7.03;4.60;;;;;;;14.38;41.63;99304.66;10234495;28;20243;-36
2023/03/19 00:53:10;;;;;;;6.17;4.63;;;;;;;14.09;41.44;99380.66;10236703;28;20306;-37
2023/03/19 00:58:12;;;;;;;7.50;4.97;;;;;;;13.28;42.21;99362.25;10237459;28;20236;-37
2023/03/19 01:03:13;;;;;;;7.10;5.50;;;;;;;14.02;41.31;99368.06;10237047;28;20612;-36
2023/03/19 01:08:17;;;;;;;7.67;5.50;;;;;;;14.70;41.44;99361.13;10240192;28;20236;-37
2023/03/19 01:13:19;;;;;;;6.27;4.60;;;;;;;13.73;42.52;99406.28;10238212;28;20232;-36
2023/03/19 01:18:21;;;;;;;8.63;5.07;;;;;;;13.40;42.70;99407.28;10232555;28;20236;-36
2023/03/19 01:23:22;;;;;;;6.17;5.03;;;;;;;13.28;43.28;99409.81;10237090;28;20230;-36
2023/03/19 01:28:24;;;;;;;7.07;5.47;;;;;;;14.44;41.96;99351.41;10233078;28;20245;-36
2023/03/19 01:33:26;;;;;;;7.90;5.40;;;;;;;12.97;43.84;99426.56;10236565;28;20235;-35
2023/03/19 01:38:28;;;;;;;6.87;5.40;;;;;;;14.09;42.35;99415.63;10233901;28;20334;-36
2023/03/19 01:43:31;;;;;;;6.67;4.60;;;;;;;16.61;39.42;99383.34;10237392;28;20712;-36
2023/03/19 01:48:36;;;;;;;7.13;6.00;;;;;;;15.12;41.32;99401.75;10234620;28;20239;-36
2023/03/19 01:53:40;;;;;;;5.73;4.80;;;;;;;16.16;39.70;99341.50;10241141;28;20435;-37
2023/03/19 01:58:45;;;;;;;9.53;5.90;;;;;;;16.68;39.48;99357.03;10237989;28;20832;-36
2023/03/19 02:03:49;;;;;;;8.97;5.30;;;;;;;15.82;39.87;99378.91;10235129;28;20258;-36
2023/03/19 02:08:51;;;;;;;7.80;5.10;;;;;;;11.85;46.37;99420.88;10241128;28;20231;-36
2023/03/19 02:13:53;;;;;;;6.83;4.93;;;;;;;14.01;43.69;99382.53;10239488;28;20239;-36
2023/03/19 02:18:55;;;;;;;6.93;5.03;;;;;;;12.15;45.55;99438.28;10240711;28;20265;-36
2023/03/19 02:24:24;;;;;;;8.10;4.80;;;;;;;12.64;44.90;99451.59;10238905;28;20239;-36
2023/03/19 02:29:26;;;;;;;6.47;4.10;;;;;;;15.36;40.96;99361.47;10240388;28;20235;-37
2023/03/19 02:34:41;;;;;;;9.77;4.90;;;;;;;14.02;42.84;99403.03;10233900;28;20250;-36
2023/03/19 02:39:49;;;;;;;7.40;4.47;;;;;;;13.47;43.97;99424.19;10234921;28;20226;-36
2023/03/19 02:44:51;;;;;;;11.60;4.33;;;;;;;15.29;41.04;99371.50;10236762;28;20243;-36
2023/03/19 02:49:52;;;;;;;11.50;5.47;;;;;;;15.07;41.23;99395.41;10236111;28;20262;-35
2023/03/19 02:54:54;;;;;;;8.03;5.47;;;;;;;14.34;42.63;99456.03;10242608;28;20243;-38
2023/03/19 02:59:56;;;;;;;7.27;5.20;;;;;;;14.55;42.72;99452.19;10233036;28;20686;-35
2023/03/19 03:04:57;;;;;;;7.93;5.30;;;;;;;15.80;41.02;99437.69;10235394;28;20246;-36
2023/03/19 03:09:59;;;;;;;6.50;4.57;;;;;;;13.58;42.94;99471.94;10235954;28;20241;-36
2023/03/19 03:15:01;;;;;;;6.67;4.60;;;;;;;14.66;42.02;99443.41;10238126;28;20888;-36
2023/03/19 03:20:04;;;;;;;7.40;4.87;;;;;;;14.99;41.44;99430.72;10238147;28;20617;-37
2023/03/19 03:25:06;;;;;;;8.97;5.60;;;;;;;14.23;42.62;99476.41;10237585;28;20225;-36
2023/03/19 03:30:09;;;;;;;6.37;4.73;;;;;;;14.91;41.11;99461.44;10237603;28;20249;-36
2023/03/19 03:35:11;;;;;;;8.80;4.13;;;;;;;14.23;42.49;99472.91;10237202;28;20235;-36
2023/03/19 03:40:14;;;;;;;6.10;4.77;;;;;;;14.35;42.07;99463.09;10234553;28;20592;-36
2023/03/19 03:45:16;;;;;;;9.30;5.00;;;;;;;13.65;42.82;99504.19;10239086;28;20235;-36
2023/03/19 03:50:18;;;;;;;6.03;4.30;;;;;;;15.47;40.29;99473.94;10244922;28;20262;-36
2023/03/19 03:55:20;;;;;;;6.13;4.60;;;;;;;16.34;39.16;99499.06;10240324;28;20235;-36
2023/03/19 04:00:22;;;;;;;5.80;4.17;;;;;;;16.60;39.14;99505.94;10243979;28;20239;-37
2023/03/19 04:05:25;;;;;;;5.27;4.10;;;;;;;16.05;39.12;99480.72;10223785;28;20776;-36
2023/03/19 04:10:26;;;;;;;6.30;3.83;;;;;;;16.02;38.92;99461.47;10212619;28;20713;-36
2023/03/19 04:15:28;;;;;;;5.67;3.97;;;;;;;16.58;38.25;99467.53;10240248;28;20235;-36
2023/03/19 04:20:30;;;;;;;5.37;4.03;;;;;;;17.01;38.22;99481.84;10245434;28;20245;-36
2023/03/19 04:25:32;;;;;;;6.30;4.10;;;;;;;14.89;40.68;99515.53;10246901;28;20317;-36
2023/03/19 04:30:34;;;;;;;6.23;4.10;;;;;;;14.64;41.40;99509.28;10242829;28;20238;-37
2023/03/19 04:35:37;;;;;;;7.80;4.33;;;;;;;15.06;40.83;99496.94;10241054;28;20290;-36
2023/03/19 04:40:40;;;;;;;4.60;3.83;;;;;;;15.58;39.57;99483.19;10237626;28;20615;-37
2023/03/19 04:45:42;;;;;;;6.37;3.87;;;;;;;16.84;38.08;99490.63;10245327;28;20312;-36
2023/03/19 04:50:46;;;;;;;5.17;4.13;;;;;;;15.96;38.84;99486.66;10241389;28;20235;-37
2023/03/19 04:55:47;;;;;;;6.83;3.93;;;;;;;15.27;39.85;99489.53;10243472;28;20286;-36
2023/03/19 05:00:49;;;;;;;5.67;4.40;;;;;;;15.35;39.70;99486.50;10243252;28;20330;-35
2023/03/19 05:05:53;;;;;;;5.17;4.00;;;;;;;16.27;38.65;99460.56;10241417;28;20586;-36
2023/03/19 05:10:55;;;;;;;5.07;4.03;;;;;;;15.72;39.33;99454.19;10244768;28;20246;-36
2023/03/19 05:15:57;;;;;;;7.53;3.90;;;;;;;16.02;38.64;99467.69;10241085;28;20239;-36
2023/03/19 05:20:58;;;;;;;7.67;4.40;;;;;;;15.40;39.78;99483.97;10242533;28;20227;-38
2023/03/19 05:26:00;;;;;;;5.93;3.93;;;;;;;16.21;39.05;99481.97;10239053;28;20357;-37
2023/03/19 05:31:03;;;;;;;7.27;4.50;;;;;;;14.89;39.98;99477.81;10241709;28;20607;-36
2023/03/19 05:36:06;;;;;;;5.23;4.57;;;;;;;15.69;40.05;99476.22;10234309;28;20665;-36
2023/03/19 05:41:08;;;;;;;6.73;4.47;;;;;;;16.70;38.75;99494.56;10239491;28;20246;-36
2023/03/19 05:46:10;;;;;;;5.70;4.43;;;;;;;15.14;40.65;99504.75;10237638;28;20673;-36
2023/03/19 05:51:12;;;;;;;7.27;4.57;;;;;;;15.82;39.85;99477.94;10235987;28;20282;-36
2023/03/19 05:56:13;;;;;;;6.13;4.37;;;;;;;15.51;39.89;99477.84;10234766;28;20801;-36
2023/03/19 06:01:15;;;;;;;6.13;3.93;;;;;;;15.34;39.63;99476.78;10243644;28;20246;-36
2023/03/19 06:06:17;;;;;;;7.37;4.43;;;;;;;15.34;40.17;99514.53;10238972;28;20231;-36
2023/03/19 06:11:19;;;;;;;5.63;4.40;;;;;;;16.17;38.99;99499.69;10236819;28;20317;-36
2023/03/19 06:16:20;;;;;;;7.27;4.33;;;;;;;14.97;40.37;99524.41;10240381;28;20239;-36
2023/03/19 06:21:24;;;;;;;6.43;4.00;;;;;;;14.41;40.84;99532.22;10242824;28;20227;-37
2023/03/19 06:26:26;;;;;;;6.17;4.70;;;;;;;15.04;40.00;99493.66;10236175;28;20232;-36
2023/03/19 06:31:28;;;;;;;8.87;5.67;;;;;;;14.74;40.96;99515.00;10237431;28;20649;-36
2023/03/19 06:36:30;;;;;;;7.80;4.97;;;;;;;16.35;39.29;99519.63;10240865;28;20302;-36
2023/03/19 06:41:32;;;;;;;6.70;4.83;;;;;;;15.27;40.65;99533.47;10235375;28;20231;-36
2023/03/19 06:46:34;;;;;;;8.07;5.47;;;;;;;15.08;40.46;99507.50;10235976;28;20299;-36
2023/03/19 06:51:35;;;;;;;6.17;4.53;;;;;;;15.73;40.61;99508.97;10237393;28;20221;-36
2023/03/19 06:56:37;;;;;;;6.80;5.03;;;;;;;16.31;39.50;99513.03;10240699;28;20250;-36
2023/03/19 07:01:40;;;;;;;7.70;5.67;;;;;;;15.57;39.88;99526.56;10233757;28;20204;-35
2023/03/19 07:06:42;;;;;;;7.57;5.70;;;;;;;17.60;37.58;99523.19;10241402;28;20258;-36
2023/03/19 07:11:43;;;;;;;6.90;4.50;;;;;;;15.07;40.16;99538.22;10240497;28;20203;-35
2023/03/19 07:16:45;;;;;;;4.83;3.90;;;;;;;15.66;39.76;99539.53;10237858;28;20228;-36
2023/03/19 07:21:47;;;;;;;7.23;4.50;;;;;;;13.72;42.23;99517.59;10245984;28;20218;-35
2023/03/19 07:26:48;;;;;;;5.90;4.17;;;;;;;13.56;42.80;99557.31;10251382;28;20237;-37
2023/03/19 07:31:50;;;;;;;5.00;3.73;;;;;;;16.41;39.75;99503.31;10250422;28;20831;-35
2023/03/19 07:36:52;;;;;;;9.77;5.00;;;;;;;14.86;41.05;99551.00;10240788;28;20239;-35
2023/03/19 07:41:54;;;;;;;9.93;5.70;;;;;;;15.36;40.40;99542.09;10246516;28;20234;-35
2023/03/19 07:46:56;;;;;;;7.33;5.23;;;;;;;16.25;40.19;99518.25;10248953;28;20242;-36
2023/03/19 07:51:58;;;;;;;13.13;7.10;;;;;;;16.26;39.35;99489.41;10241362;28;20231;-36
2023/03/19 07:56:59;;;;;;;7.30;4.90;;;;;;;17.07;38.90;99511.44;10239961;28;20621;-37
2023/03/19 08:02:01;;;;;;;8.73;5.43;;;;;;;15.43;40.72;99553.63;10243238;28;20241;-35
2023/03/19 08:07:03;;;;;;;8.67;5.10;;;;;;;15.95;40.70;99504.75;10240596;28;20339;-36
2023/03/19 08:12:05;;;;;;;5.73;4.20;;;;;;;16.67;39.51;99509.38;10251132;28;20246;-36
2023/03/19 08:17:07;;;;;;;6.10;4.50;;;;;;;16.37;39.52;99499.44;10243162;28;20239;-35
2023/03/19 08:22:09;;;;;;;4.40;3.57;;;;;;;15.25;40.87;99526.63;10243124;28;20232;-37
2023/03/19 08:27:11;;;;;;;5.67;3.83;;;;;;;15.14;41.74;99520.91;10245736;28;20247;-38
2023/03/19 08:32:13;;;;;;;4.57;3.60;;;;;;;15.13;42.03;99540.00;10241256;28;20238;-38
2023/03/19 08:37:15;;;;;;;6.60;3.70;;;;;;;16.85;39.72;99513.84;10240469;28;20245;-35
2023/03/19 08:42:18;;;;;;;4.37;3.77;;;;;;;15.66;41.03;99525.22;10238919;28;20231;-36
2023/03/19 08:47:23;;;;;;;7.57;4.50;;;;;;;15.53;41.36;99545.03;10237952;28;20239;-35
2023/03/19 08:52:25;;;;;;;4.87;3.70;;;;;;;15.14;41.04;99576.69;10237451;28;20292;-36
2023/03/19 08:57:26;;;;;;;6.83;4.60;;;;;;;16.18;40.28;99530.19;10239123;28;20236;-37
2023/03/19 09:02:28;;;;;;;5.93;3.80;;;;;;;16.39;41.00;99505.41;10222280;28;20255;-35
2023/03/19 09:07:30;;;;;;;5.10;3.50;;;;;;;14.14;41.64;99505.44;10243687;28;20246;-35
2023/03/19 09:12:32;;;;;;;4.37;3.17;;;;;;;15.56;41.00;99533.84;10244900;28;20254;-36
2023/03/19 09:17:33;;;;;;;4.50;3.17;;;;;;;16.22;40.42;99490.91;10242424;28;20235;-36
2023/03/19 09:22:35;;;;;;;4.73;3.20;;;;;;;16.55;40.01;99497.72;10235973;28;20238;-36
2023/03/19 09:27:37;;;;;;;5.47;2.93;;;;;;;14.78;41.61;99587.06;10243200;28;20239;-36
2023/03/19 09:32:39;;;;;;;4.10;3.07;;;;;;;17.23;39.73;99528.84;10234569;28;20238;-36
2023/03/19 09:37:41;;;;;;;9.50;3.67;;;;;;;16.98;38.92;99497.47;10233524;28;20238;-36
2023/03/19 09:43:07;;;;;;;4.77;2.83;;;;;;;17.64;38.12;99512.75;10237906;28;20214;-36
2023/03/19 09:48:17;;;;;;;7.57;3.33;;;;;;;16.66;39.50;99529.34;10233162;28;20238;-37
2023/03/19 09:53:46;;;;;;;3.33;2.93;;;;;;;18.28;38.20;99542.44;10238733;28;20215;-35
2023/03/19 09:58:47;;;;;;;3.93;2.80;;;;;;;16.31;39.41;99524.63;10235636;28;20736;-37
2023/03/19 10:03:58;;;;;;;5.40;3.13;;;;;;;16.52;40.23;99546.81;10238791;28;20347;-36
2023/03/19 10:09:32;;;;;;;9.10;4.43;;;;;;;17.64;38.59;99508.16;10227549;28;20236;-36
2023/03/19 10:14:53;;;;;;;5.17;3.20;;;;;;;18.06;38.52;99499.78;10240549;28;20234;-36
2023/03/19 10:20:25;;;;;;;5.37;3.40;;;;;;;17.81;38.92;99494.69;10237848;28;20612;-36
2023/03/19 10:25:38;;;;;;;5.70;3.67;;;;;;;17.04;39.76;99500.28;10231814;28;20243;-36
2023/03/19 10:30:50;;;;;;;5.73;3.53;;;;;;;17.70;38.02;99482.84;10236161;28;20233;-37
2023/03/19 10:36:02;;;;;;;5.73;3.30;;;;;;;16.86;38.80;99515.53;10233589;28;20270;-36
2023/03/19 10:41:16;;;;;;;3.60;2.70;;;;;;;17.19;38.53;99524.97;10237264;28;20258;-36
2023/03/19 10:46:18;;;;;;;4.13;3.30;;;;;;;16.68;39.32;99526.41;10234512;28;20717;-37
2023/03/19 10:51:24;;;;;;;5.53;3.43;;;;;;;16.54;39.47;99540.09;10229858;28;20245;-38
2023/03/19 10:56:32;;;;;;;5.03;3.47;;;;;;;17.93;38.45;99502.78;10235904;28;20849;-37
2023/03/19 11:06:37;;;;;;;5.50;2.83;;;;;;;15.24;41.64;99562.72;10468383;28;20847;-67
2023/03/19 11:11:44;;;;;;;5.43;3.13;;;;;;;15.54;41.17;99546.69;10305738;28;20262;-67
2023/03/19 11:16:54;;;;;;;4.27;2.83;;;;;;;15.37;42.11;99580.63;10343274;28;20227;-67
2023/03/19 11:22:19;;;;;;;4.70;3.00;;;;;;;15.27;40.76;99573.09;10349441;28;20252;-68
2023/03/19 11:27:34;;;;;;;5.77;3.00;;;;;;;16.48;40.45;99551.81;10346988;28;20225;-68
2023/03/19 11:32:54;;;;;;;6.77;3.53;;;;;;;16.79;39.97;99534.53;10344725;28;20580;-68
2023/03/19 11:37:59;;;;;;;7.20;3.20;;;;;;;14.65;42.19;99580.97;10349605;28;20362;-68
2023/03/19 11:43:44;;;;;;;3.63;2.93;;;;;;;13.94;43.85;99588.88;10347187;28;20229;-68
2023/03/19 11:49:14;;;;;;;5.63;3.00;;;;;;;14.20;44.45;99606.00;10342420;28;20893;-68
2023/03/19 11:54:31;;;;;;;4.07;3.30;;;;;;;14.81;45.00;99555.34;10344169;28;20225;-68
2023/03/19 11:59:53;;;;;;;4.87;4.13;;;;;;;16.02;43.13;99521.66;10345248;28;20727;-68
2023/03/19 12:05:35;;;;;;;5.27;3.73;;;;;;;15.16;43.28;99573.78;10342496;28;20725;-67
2023/03/19 12:11:00;;;;;;;3.77;3.30;;;;;;;14.96;42.61;99577.44;10341171;28;20299;-69
2023/03/19 12:16:19;;;;;;;7.43;4.53;;;;;;;16.11;41.77;99533.00;10327275;28;20732;-69
2023/03/19 12:21:28;;;;;;;4.03;3.20;;;;;;;15.59;41.88;99564.91;10314420;28;20763;-69
2023/03/19 12:26:41;;;;;;;5.67;4.07;;;;;;;15.45;42.40;99551.56;10318610;28;20234;-69
2023/03/19 12:32:17;;;;;;;6.47;3.47;;;;;;;14.31;43.89;99573.06;10309673;28;20481;-70
2023/03/19 12:37:33;;;;;;;6.57;3.90;;;;;;;15.61;44.89;99509.72;10316421;28;20238;-69
2023/03/19 12:42:38;;;;;;;6.33;3.80;;;;;;;16.97;44.33;99538.22;10316184;28;20241;-69
2023/03/19 12:47:43;;;;;;;4.50;3.23;;;;;;;13.94;46.40;99550.41;10316322;28;20626;-73
2023/03/19 12:52:50;;;;;;;5.33;3.27;;;;;;;17.23;42.66;99544.28;10313695;28;20245;-68
2023/03/19 12:58:03;;;;;;;4.97;3.60;;;;;;;15.71;44.00;99530.78;10315699;28;20238;-69
2023/03/19 13:03:52;;;;;;;5.00;3.27;;;;;;;15.81;43.48;99539.16;10316778;28;20324;-69
2023/03/19 13:09:03;;;;;;;4.70;3.10;;;;;;;16.82;43.15;99535.97;10354069;28;20241;-67
2023/03/19 13:14:20;;;;;;;5.47;3.40;;;;;;;16.71;43.18;99542.16;10310272;28;20222;-71
2023/03/19 13:19:28;;;;;;;3.30;2.50;;;;;;;16.66;44.32;99542.03;10291934;28;20293;-68
2023/03/19 13:24:37;;;;;;;2.83;2.60;;;;;;;16.38;44.10;99517.28;10290980;28;20230;-71
2023/03/19 13:29:54;;;;;;;2.77;2.33;;;;;;;15.82;45.83;99545.38;10306199;28;20241;-67
2023/03/19 13:35:23;;;;;;;3.07;2.63;;;;;;;16.66;44.26;99533.94;10314500;28;20229;-70
2023/03/19 13:40:51;;;;;;;5.03;2.33;;;;;;;14.70;46.01;99525.38;10312893;28;20308;-68
2023/03/19 13:46:02;;;;;;;2.80;2.23;;;;;;;16.99;43.22;99523.44;10314519;28;20226;-70
2023/03/19 13:51:26;;;;;;;4.70;2.50;;;;;;;15.62;45.68;99568.00;10315576;28;20226;-69
2023/03/19 13:56:28;;;;;;;2.50;2.30;;;;;;;15.92;44.97;99531.34;10315871;28;20736;-69
2023/03/19 14:01:36;;;;;;;2.37;2.17;;;;;;;14.89;45.89;99530.88;10314764;28;20321;-68
2023/03/19 14:06:45;;;;;;;2.20;2.10;;;;;;;16.00;44.91;99495.97;10309300;28;20233;-69
2023/03/19 14:11:47;;;;;;;2.07;1.90;;;;;;;15.03;47.33;99535.13;10309028;28;20218;-69
2023/03/19 14:16:52;;;;;;;2.30;1.90;;;;;;;16.12;46.16;99509.53;10309384;28;20352;-70
2023/03/19 14:21:53;;;;;;;2.60;2.40;;;;;;;14.10;48.63;99559.91;10312126;28;20241;-69
2023/03/19 14:27:12;;;;;;;3.90;2.87;;;;;;;17.62;42.94;99550.81;10308581;28;20759;-70
2023/03/19 14:32:20;;;;;;;3.63;2.63;;;;;;;15.71;45.54;99528.06;10309371;28;20727;-70
2023/03/19 14:37:35;;;;;;;3.30;2.10;;;;;;;16.77;44.03;99496.13;10312821;28;20238;-70
2023/03/19 14:42:41;;;;;;;2.67;2.30;;;;;;;18.60;40.97;99453.38;10310018;28;20269;-68
2023/03/19 14:47:53;;;;;;;3.40;2.37;;;;;;;18.44;41.26;99471.28;10313362;28;20237;-70
2023/03/19 14:53:03;;;;;;;3.03;2.37;;;;;;;17.56;42.88;99470.59;10310201;28;20225;-68
2023/03/19 14:58:11;;;;;;;2.47;2.20;;;;;;;16.95;42.92;99470.09;10312761;28;20302;-68
2023/03/19 15:03:30;;;;;;;4.43;2.83;;;;;;;18.20;41.83;99434.50;10308191;28;20226;-68
2023/03/19 15:08:35;;;;;;;2.80;2.60;;;;;;;15.64;44.89;99517.34;10306251;28;20238;-68
2023/03/19 15:14:01;;;;;;;3.63;2.50;;;;;;;18.19;41.48;99443.72;10308971;28;20226;-68
2023/03/19 15:19:08;;;;;;;3.70;2.60;;;;;;;16.88;43.73;99478.28;10308030;28;20242;-70
2023/03/19 15:24:15;;;;;;;2.67;2.47;;;;;;;16.41;44.62;99497.09;10312885;28;20233;-68
2023/03/19 15:29:16;;;;;;;3.30;2.50;;;;;;;16.61;44.49;99491.38;10308292;28;20249;-68
2023/03/19 15:34:27;;;;;;;4.70;2.70;;;;;;;16.92;43.92;99475.91;10308061;28;20416;-69
2023/03/19 15:39:35;;;;;;;2.57;2.23;;;;;;;16.47;43.64;99512.38;10308294;28;20234;-69
2023/03/19 15:44:46;;;;;;;2.50;2.27;;;;;;;16.72;43.55;99495.16;10309555;28;20234;-67
2023/03/19 15:50:03;;;;;;;1.90;1.80;;;;;;;17.00;43.54;99459.38;10314681;28;20238;-68
2023/03/19 15:55:06;;;;;;;1.90;1.80;;;;;;;16.79;44.22;99490.50;10323013;28;20225;-72
2023/03/19 16:00:12;;;;;;;2.33;1.90;;;;;;;16.50;44.81;99516.47;10315113;28;20281;-69
2023/03/19 16:05:29;;;;;;;2.53;2.20;;;;;;;16.56;45.33;99537.19;10319656;28;20238;-68
2023/03/19 16:10:39;;;;;;;3.53;2.53;;;;;;;17.33;44.33;99512.88;10317924;28;20245;-69
2023/03/19 16:15:47;;;;;;;3.93;2.87;;;;;;;16.91;43.44;99502.13;10318380;28;20222;-69
2023/03/19 16:21:00;;;;;;;4.80;2.90;;;;;;;18.34;42.10;99557.78;10317717;28;20268;-69
2023/03/19 16:26:16;;;;;;;4.63;3.70;;;;;;;16.58;44.05;99549.41;10321169;28;20232;-69
2023/03/19 16:31:24;;;;;;;3.47;2.07;;;;;;;15.18;46.98;99595.94;10309421;28;20244;-69
2023/03/19 16:36:30;;;;;;;5.77;2.53;;;;;;;16.06;47.83;99581.41;10317295;28;20226;-70
2023/03/19 16:41:32;;;;;;;2.67;2.30;;;;;;;17.30;45.66;99556.59;10299933;28;20245;-70
2023/03/19 16:46:34;;;;;;;3.10;2.33;;;;;;;17.45;45.80;99553.44;10316798;28;20321;-69
2023/03/19 16:51:37;;;;;;;2.83;2.10;;;;;;;16.47;46.51;99531.28;10316045;28;20230;-70
2023/03/19 16:56:38;;;;;;;2.13;1.93;;;;;;;16.71;46.12;99561.06;10313804;28;20256;-70
2023/03/19 17:01:40;;;;;;;2.30;2.10;;;;;;;16.76;45.35;99561.19;10318148;28;20234;-70
2023/03/19 17:06:42;;;;;;;2.23;1.30;;;;;;;15.68;46.26;99604.03;10318834;28;20313;-70
2023/03/19 17:11:44;;;;;;;1.63;1.53;;;;;;;15.13;47.94;99637.03;10315958;28;20590;-69
2023/03/19 17:16:49;;;;;;;2.00;1.90;;;;;;;15.36;48.02;99625.66;10318595;28;20210;-69
2023/03/19 17:21:54;;;;;;;1.90;1.67;;;;;;;14.21;49.23;99588.84;10314727;28;20269;-70
2023/03/19 17:26:58;;;;;;;1.93;1.63;;;;;;;16.75;45.42;99610.88;10314676;28;20300;-70
2023/03/19 17:32:01;;;;;;;1.80;1.47;;;;;;;16.16;45.14;99588.97;10313685;28;20230;-70
2023/03/19 17:37:05;;;;;;;3.40;1.80;;;;;;;17.55;43.77;99617.75;10317460;28;20234;-69
2023/03/19 17:42:21;;;;;;;7.70;5.13;;;;;;;17.27;43.74;99600.31;10312398;28;20233;-72
2023/03/19 17:47:23;;;;;;;10.63;7.07;;;;;;;18.20;42.47;99633.03;10317147;28;20233;-69
2023/03/19 17:52:25;;;;;;;6.73;5.17;;;;;;;16.15;44.20;99607.06;10316562;28;20226;-70
2023/03/19 17:57:27;;;;;;;2.90;2.70;;;;;;;16.48;44.55;99619.34;10317845;28;20715;-72
2023/03/19 18:02:31;;;;;;;6.17;4.70;;;;;;;14.81;47.49;99698.13;10311308;28;20942;-67
2023/03/19 18:07:33;;;;;;;7.73;5.07;;;;;;;14.49;48.03;99689.97;10319041;28;20325;-67
2023/03/19 18:12:35;;;;;;;5.13;4.10;;;;;;;17.24;44.16;99652.19;10317875;28;20269;-70
2023/03/19 18:17:38;;;;;;;4.57;3.60;;;;;;;16.91;43.15;99639.16;10315643;28;20241;-73
2023/03/19 18:22:39;;;;;;;5.43;4.17;;;;;;;16.21;43.92;99653.91;10315582;28;20234;-70
2023/03/19 18:27:41;;;;;;;4.77;4.23;;;;;;;16.02;44.03;99674.69;10311283;28;20239;-70
2023/03/19 18:32:46;;;;;;;4.70;3.80;;;;;;;11.88;52.12;99688.56;10309717;28;20257;-68
2023/03/19 18:37:50;;;;;;;2.57;2.30;;;;;;;16.62;45.10;99699.16;10309822;28;20246;-70
2023/03/19 18:42:52;;;;;;;5.37;2.27;;;;;;;14.81;48.01;99741.22;10312242;28;20233;-68
2023/03/19 18:47:55;;;;;;;6.03;4.70;;;;;;;14.17;48.22;99763.34;10317872;28;20234;-68
2023/03/19 18:52:57;;;;;;;4.83;4.07;;;;;;;15.04;47.10;99752.34;10311568;28;20234;-67
2023/03/19 18:58:01;;;;;;;5.73;4.00;;;;;;;16.25;44.44;99704.53;10312828;28;20645;-67
2023/03/19 19:03:04;;;;;;;2.33;2.13;;;;;;;12.49;52.26;99771.16;10313592;28;20233;-68
2023/03/19 19:08:13;;;;;;;2.30;2.10;;;;;;;13.64;50.17;99815.22;10309826;28;21569;-68
2023/03/19 19:13:20;;;;;;;2.00;1.90;;;;;;;15.10;47.17;99735.31;10313733;28;20218;-67
2023/03/19 19:18:25;;;;;;;2.40;2.20;;;;;;;15.85;45.49;99731.91;10304573;28;20631;-69
2023/03/19 19:23:29;;;;;;;2.57;2.17;;;;;;;14.73;46.77;99745.81;10315054;28;20238;-66
2023/03/19 19:28:38;;;;;;;2.53;2.33;;;;;;;14.87;46.31;99788.91;10314922;28;20867;-69
2023/03/19 19:33:42;;;;;;;2.80;2.30;;;;;;;14.55;46.46;99786.88;10317662;28;20319;-67
2023/03/19 19:38:43;;;;;;;2.83;2.60;;;;;;;13.76;48.28;99820.81;10320228;28;20240;-67
2023/03/19 19:43:46;;;;;;;3.47;3.10;;;;;;;16.77;43.76;99824.94;10317719;28;20260;-71
2023/03/19 19:49:28;;;;;;;4.83;3.80;;;;;;;16.80;42.82;99809.09;10315829;28;20593;-70
2023/03/19 19:54:30;;;;;;;2.50;2.30;;;;;;;13.47;48.26;99838.13;10316165;28;20240;-67
2023/03/19 19:59:33;;;;;;;2.47;2.33;;;;;;;12.74;49.64;99849.34;10313073;28;20775;-70
2023/03/19 20:04:35;;;;;;;2.53;2.33;;;;;;;13.99;48.07;99854.59;10290969;28;20238;-69
2023/03/19 20:09:36;;;;;;;3.80;3.40;;;;;;;14.59;47.63;99868.91;10303691;28;20233;-68
2023/03/19 20:14:38;;;;;;;3.40;3.03;;;;;;;15.85;45.29;99847.09;10320338;28;20252;-68
2023/03/19 20:19:40;;;;;;;4.00;3.10;;;;;;;14.09;48.22;99906.16;10317279;28;20807;-67
2023/03/19 20:24:41;;;;;;;3.10;2.90;;;;;;;15.07;45.57;99851.63;10322410;28;20238;-68
2023/03/19 20:29:43;;;;;;;4.33;3.73;;;;;;;14.73;46.93;99875.09;10321121;28;20269;-68
2023/03/19 20:34:45;;;;;;;5.23;3.40;;;;;;;15.07;46.39;99881.25;10314244;28;20969;-67
2023/03/19 20:39:47;;;;;;;3.87;3.37;;;;;;;15.04;46.33;99883.56;10317441;28;20249;-66
2023/03/19 20:44:52;;;;;;;5.00;3.70;;;;;;;15.48;45.42;99890.84;10315034;28;20230;-68
2023/03/19 20:49:53;;;;;;;4.27;3.23;;;;;;;14.45;47.44;99941.81;10306161;28;20621;-71
2023/03/19 20:54:55;;;;;;;3.20;2.90;;;;;;;14.11;47.48;99928.31;10314667;28;20234;-67
2023/03/19 21:00:01;;;;;;;3.27;2.70;;;;;;;14.65;47.14;99939.13;10319540;28;20660;-67
2023/03/19 21:05:06;;;;;;;2.70;2.50;;;;;;;14.50;47.58;99952.78;10314184;28;20249;-67
2023/03/19 21:10:31;;;;;;;3.07;2.50;;;;;;;14.39;47.68;99965.84;10302729;28;20903;-67
2023/03/19 21:15:32;;;;;;;2.57;2.37;;;;;;;12.89;50.01;99976.28;10311070;28;20234;-66
2023/03/19 21:20:37;;;;;;;3.33;3.00;;;;;;;13.21;49.17;99990.16;10317378;28;20303;-71
2023/03/19 21:25:39;;;;;;;3.13;2.83;;;;;;;12.99;49.13;99969.72;10315267;28;20237;-68
2023/03/19 21:30:43;;;;;;;3.23;2.93;;;;;;;13.99;48.29;99994.50;10317054;28;20514;-70
2023/03/19 21:35:44;;;;;;;3.20;2.90;;;;;;;13.40;48.95;99974.38;10308602;28;20931;-69
2023/03/19 21:40:47;;;;;;;4.03;3.47;;;;;;;13.63;48.94;100004.47;10306301;28;20359;-68
2023/03/19 21:45:50;;;;;;;5.83;4.40;;;;;;;14.07;47.02;99982.72;10301764;28;20253;-70
2023/03/19 21:50:51;;;;;;;3.40;3.17;;;;;;;12.73;48.54;99963.97;10313155;28;20678;-68
2023/03/19 21:55:56;;;;;;;3.30;2.93;;;;;;;13.10;48.96;99999.56;10303649;28;20239;-70
2023/03/19 22:00:58;;;;;;;2.93;2.73;;;;;;;13.20;49.25;100015.34;10312151;28;20724;-70
2023/03/19 22:06:00;;;;;;;3.10;2.80;;;;;;;14.30;47.52;100011.97;10303654;28;20248;-68
2023/03/19 22:11:02;;;;;;;3.87;2.73;;;;;;;13.85;48.54;100021.34;10308413;28;20256;-70
2023/03/19 22:16:04;;;;;;;2.50;2.30;;;;;;;13.71;48.93;100045.66;10304214;28;20237;-68
2023/03/19 22:21:12;;;;;;;2.77;2.57;;;;;;;13.75;48.52;100044.22;10307627;28;20743;-68
2023/03/19 22:26:35;;;;;;;2.83;2.40;;;;;;;12.75;49.75;100047.00;10304453;28;20719;-68
2023/03/19 22:31:36;;;;;;;2.93;2.73;;;;;;;13.65;47.81;100045.44;10309512;28;20237;-71
2023/03/19 22:36:38;;;;;;;2.57;2.37;;;;;;;13.26;48.25;100045.97;10306337;28;20252;-68
2023/03/19 22:41:44;;;;;;;3.13;2.70;;;;;;;12.60;49.51;100052.44;10305877;28;20234;-68
2023/03/19 22:46:46;;;;;;;3.00;2.70;;;;;;;13.79;47.65;100040.13;10306322;28;20769;-70
2023/03/19 22:51:48;;;;;;;3.30;2.67;;;;;;;13.21;47.99;100059.16;10316669;28;20260;-68
2023/03/19 22:56:49;;;;;;;3.20;2.90;;;;;;;13.61;47.65;100030.72;10302330;28;20245;-70
2023/03/19 23:01:51;;;;;;;2.90;2.70;;;;;;;13.14;48.29;100063.66;10294427;28;20589;-68
2023/03/19 23:06:54;;;;;;;2.70;2.50;;;;;;;12.72;48.64;100048.25;10304133;28;22433;-68
2023/03/19 23:11:58;;;;;;;2.90;2.70;;;;;;;10.64;53.25;99939.28;10308336;28;20234;-68
2023/03/19 23:17:03;;;;;;;2.87;2.67;;;;;;;11.76;51.67;100053.72;10306111;28;20229;-68
2023/03/19 23:22:12;;;;;;;3.27;2.97;;;;;;;13.51;48.00;100040.19;10308796;28;20233;-70
2023/03/19 23:27:24;;;;;;;2.80;2.60;;;;;;;12.23;50.85;100064.19;10308935;28;20244;-70
2023/03/19 23:32:26;;;;;;;3.40;2.90;;;;;;;10.39;53.67;99994.84;10305417;28;20226;-69
2023/03/19 23:37:28;;;;;;;2.60;2.40;;;;;;;11.18;52.96;100066.00;10302457;28;20245;-68
2023/03/19 23:42:30;;;;;;;3.47;3.10;;;;;;;13.69;48.34;100071.94;10303981;28;20629;-70
2023/03/19 23:47:32;;;;;;;6.80;3.00;;;;;;;12.30;50.32;100084.72;10305245;28;20600;-70